Tip Oslo — 9HA3944 — position and weather

sailwx.info

Track history (hours):
 
Tides and Currents Weather Stations Pressure Air Temp Water Temp Dewpoint Dewpoint Depression Visibility Wind Speed Wind Dir Waves Ship Positions

Tip Oslo

Last reported at 2017-Nov-23 22:01 UTC. Time now 2017-Nov-24 16:53 UTC.
Position N 43°52' W 007°43'.

Length 120 m; draft 6.7 m.

Type: Cargo ship. MMSI: 256537000.

Date/timePositionNaut miles runAvg speedWind from/ knotsBaromVisibWave heightAir tempDewpointWater temp
2017-Nov-23 22:01N 43°52' W 007°43'111.1
2017-Nov-23 21:57N 43°52' W 007°42'610.9
2017-Nov-23 21:24N 43°48' W 007°36'411.4
2017-Nov-23 21:00N 43°44' W 007°36'3 5.6
2017-Nov-23 20:30N 43°41' W 007°36'0 0.0
2017-Nov-23 20:00N 43°41' W 007°36'0 0.0
2017-Nov-23 19:30N 43°41' W 007°36'0 0.0
2017-Nov-23 19:00N 43°41' W 007°36'0 0.0
2017-Nov-23 18:30N 43°41' W 007°36'0 0.0
2017-Nov-23 18:01N 43°41' W 007°36'0 0.0
2017-Nov-23 17:30N 43°41' W 007°36'0 0.0
2017-Nov-23 17:00N 43°41' W 007°36'0 0.0
2017-Nov-23 16:30N 43°41' W 007°36'0 0.0
2017-Nov-23 16:00N 43°41' W 007°36'0 0.0
2017-Nov-23 15:30N 43°41' W 007°36'0 0.0
2017-Nov-23 15:00N 43°41' W 007°36'0 0.0
2017-Nov-23 14:30N 43°41' W 007°36'0 0.0
2017-Nov-23 14:00N 43°41' W 007°36'0 0.0
2017-Nov-23 13:30N 43°41' W 007°36'0 0.0
2017-Nov-23 13:00N 43°41' W 007°36'0 0.0
2017-Nov-23 12:30N 43°41' W 007°36'0 0.0
2017-Nov-23 12:00N 43°41' W 007°36'0 0.0
2017-Nov-23 11:30N 43°41' W 007°36'0 0.0
2017-Nov-23 11:00N 43°41' W 007°36'0 0.0
2017-Nov-23 10:30N 43°41' W 007°36'0 0.0
2017-Nov-23 10:01N 43°41' W 007°36'0 0.0
2017-Nov-23 09:30N 43°41' W 007°36'0 0.0
2017-Nov-23 09:00N 43°41' W 007°36'0 0.0
2017-Nov-23 08:30N 43°41' W 007°36'0 0.0
2017-Nov-23 08:00N 43°41' W 007°36'0 0.0
2017-Nov-23 07:30N 43°41' W 007°36'0 0.0
2017-Nov-23 07:00N 43°41' W 007°36'0 0.0
2017-Nov-23 06:30N 43°41' W 007°36'0 0.0
2017-Nov-23 06:00N 43°41' W 007°36'1 1.1
2017-Nov-23 05:27N 43°41' W 007°36'0 0.1
2017-Nov-23 04:57N 43°41' W 007°36'0 0.1
2017-Nov-23 04:30N 43°42' W 007°36'0 0.1
2017-Nov-23 04:00N 43°41' W 007°36'0 0.0
2017-Nov-23 03:30N 43°41' W 007°36'0 0.1
2017-Nov-23 02:57N 43°42' W 007°36'0 0.1
2017-Nov-23 02:30N 43°41' W 007°36'0 0.0
2017-Nov-23 01:57N 43°42' W 007°36'0 0.0
2017-Nov-23 01:30N 43°42' W 007°36'0 0.0
2017-Nov-23 01:00N 43°42' W 007°36'0 0.0
2017-Nov-23 00:30N 43°42' W 007°36'0 0.1
2017-Nov-23 00:00N 43°42' W 007°36'0 0.0
2017-Nov-22 23:30N 43°42' W 007°36'0 0.0
2017-Nov-22 23:00N 43°42' W 007°36'0 0.0
2017-Nov-22 22:30N 43°42' W 007°36'0 0.0
2017-Nov-22 22:00N 43°42' W 007°36'0 0.0
2017-Nov-22 21:27N 43°42' W 007°36'0 0.1
2017-Nov-22 20:54N 43°42' W 007°36'0 0.1
2017-Nov-22 20:30N 43°42' W 007°36'0 0.0
2017-Nov-22 19:57N 43°42' W 007°36'0 0.0
2017-Nov-22 19:30N 43°42' W 007°36'  
2017-Nov-19 11:31N 35°56' W 005°20'112.7
2017-Nov-19 11:26N 35°56' W 005°19'2 4.3
2017-Nov-19 10:58N 35°54' W 005°19'0 0.0
2017-Nov-19 10:28N 35°54' W 005°19'0 0.0
2017-Nov-19 09:58N 35°54' W 005°19'0 0.0
2017-Nov-19 09:28N 35°54' W 005°19'0 0.0
2017-Nov-19 08:58N 35°54' W 005°19'0 0.0
2017-Nov-19 08:28N 35°54' W 005°19'0 0.0
2017-Nov-19 07:58N 35°54' W 005°19'1 1.1
2017-Nov-19 07:30N 35°54' W 005°19'1 2.7
2017-Nov-19 07:00N 35°55' W 005°18'23310.8
2017-Nov-18 09:19N 37°24' W 000°49'411.8
2017-Nov-18 08:59N 37°27' W 000°45'1111.7
2017-Nov-18 08:04N 37°34' W 000°35'113.9
2017-Nov-18 08:00N 37°35' W 000°34'714.4
2017-Nov-18 07:30N 37°40' W 000°29'  
2017-Nov-15 17:54N 43°23' E 004°58'3 6.1
2017-Nov-15 17:29N 43°24' E 005°01'0 0.0
2017-Nov-15 16:59N 43°24' E 005°01'0 0.0
2017-Nov-15 16:29N 43°24' E 005°01'0 0.0
2017-Nov-15 15:59N 43°24' E 005°01'0 0.0
2017-Nov-15 15:29N 43°24' E 005°01'0 0.0
2017-Nov-15 14:59N 43°24' E 005°01'0 0.0
2017-Nov-15 14:29N 43°24' E 005°01'0 0.0
2017-Nov-15 13:56N 43°24' E 005°01'0 0.0
2017-Nov-15 13:29N 43°24' E 005°01'0 0.0
2017-Nov-15 12:59N 43°24' E 005°01'0 0.0
2017-Nov-15 12:29N 43°24' E 005°01'0 0.0
2017-Nov-15 11:59N 43°24' E 005°01'0 0.0
2017-Nov-15 11:29N 43°24' E 005°01'0 0.0
2017-Nov-15 10:59N 43°24' E 005°01'0 0.0
2017-Nov-15 10:29N 43°24' E 005°01'0 0.0
2017-Nov-15 09:59N 43°24' E 005°01'0 0.0
2017-Nov-15 09:29N 43°24' E 005°01'0 0.0
2017-Nov-15 08:56N 43°24' E 005°01'0 0.0
2017-Nov-15 08:29N 43°24' E 005°01'0 0.0
2017-Nov-15 07:59N 43°24' E 005°01'0 0.0
2017-Nov-15 07:29N 43°24' E 005°01'0 0.0
2017-Nov-15 06:59N 43°24' E 005°01'0 0.0
2017-Nov-15 06:29N 43°24' E 005°01'0 0.0
2017-Nov-15 05:59N 43°24' E 005°01'0 0.0
2017-Nov-15 05:29N 43°24' E 005°01'0 0.0
2017-Nov-15 04:59N 43°24' E 005°01'0 0.0
2017-Nov-15 04:29N 43°24' E 005°01'0 0.0
2017-Nov-15 03:59N 43°24' E 005°01'0 0.0
2017-Nov-15 03:29N 43°24' E 005°01'0 0.0
2017-Nov-15 02:59N 43°24' E 005°01'0 0.0
2017-Nov-15 02:29N 43°24' E 005°01'0 0.0
2017-Nov-15 01:58N 43°24' E 005°01'0 0.0
2017-Nov-15 01:28N 43°24' E 005°01'0 0.0
2017-Nov-15 00:58N 43°24' E 005°01'0 0.0
2017-Nov-15 00:28N 43°24' E 005°01'0 0.0
2017-Nov-14 23:58N 43°24' E 005°01'0 0.0
2017-Nov-14 23:28N 43°24' E 005°01'0 0.0
2017-Nov-14 22:58N 43°24' E 005°01'0 0.0
2017-Nov-14 22:28N 43°24' E 005°01'0 0.0
2017-Nov-14 21:58N 43°24' E 005°01'0 0.0
2017-Nov-14 21:28N 43°24' E 005°01'0 0.0
2017-Nov-14 20:58N 43°24' E 005°01'0 0.0
2017-Nov-14 20:28N 43°24' E 005°01'0 0.0
2017-Nov-14 19:58N 43°24' E 005°01'0 0.0
2017-Nov-14 19:28N 43°24' E 005°01'0 0.0
2017-Nov-14 18:58N 43°24' E 005°01'0 0.0
2017-Nov-14 18:28N 43°24' E 005°01'0 0.0
2017-Nov-14 17:58N 43°24' E 005°01'0 0.0
2017-Nov-14 17:28N 43°24' E 005°01'0 0.0
2017-Nov-14 16:58N 43°24' E 005°01'0 0.0
2017-Nov-14 16:25N 43°24' E 005°01'0 0.0
2017-Nov-14 15:55N 43°24' E 005°01'0 0.0
2017-Nov-14 15:28N 43°24' E 005°01'0 0.0
2017-Nov-14 14:55N 43°24' E 005°01'0 0.0
2017-Nov-14 14:28N 43°24' E 005°01'0 0.0
2017-Nov-14 13:58N 43°24' E 005°01'0 0.0
2017-Nov-14 13:28N 43°24' E 005°01'0 0.0
2017-Nov-14 12:58N 43°24' E 005°01'0 0.0
2017-Nov-14 12:28N 43°24' E 005°01'0 0.0
2017-Nov-14 11:58N 43°24' E 005°01'0 0.0
2017-Nov-14 11:22N 43°24' E 005°01'0 0.0
2017-Nov-14 10:58N 43°24' E 005°01'0 0.0
2017-Nov-14 10:28N 43°24' E 005°01'0 0.0
2017-Nov-14 09:55N 43°24' E 005°01'0 0.0
2017-Nov-14 09:28N 43°24' E 005°01'0 0.0
2017-Nov-14 08:55N 43°24' E 005°01'0 0.0
2017-Nov-14 08:28N 43°24' E 005°01'0 0.0
2017-Nov-14 07:58N 43°24' E 005°01'0 0.0
2017-Nov-14 07:28N 43°24' E 005°01'0 0.0
2017-Nov-14 06:58N 43°24' E 005°01'0 0.0
2017-Nov-14 06:28N 43°24' E 005°01'0 0.0
2017-Nov-14 05:58N 43°24' E 005°01'0 0.0
2017-Nov-14 05:28N 43°24' E 005°01'0 0.0
2017-Nov-14 04:58N 43°24' E 005°01'0 0.0
2017-Nov-14 04:28N 43°24' E 005°01'0 0.0
2017-Nov-14 03:58N 43°24' E 005°01'0 0.0
2017-Nov-14 03:28N 43°24' E 005°01'0 0.0
2017-Nov-14 02:58N 43°24' E 005°01'0 0.0
2017-Nov-14 02:28N 43°24' E 005°01'0 0.0
2017-Nov-14 01:58N 43°24' E 005°01'0 0.0
2017-Nov-14 01:28N 43°24' E 005°01'0 0.0
2017-Nov-14 00:58N 43°24' E 005°01'0 0.0
2017-Nov-14 00:28N 43°24' E 005°01'0 0.0
2017-Nov-13 23:58N 43°24' E 005°01'0 0.0
2017-Nov-13 23:28N 43°24' E 005°01'0 0.0
2017-Nov-13 22:55N 43°24' E 005°01'0 0.0
2017-Nov-13 22:28N 43°24' E 005°01'  
Track history (hours):
 
Tides and Currents Weather Stations Pressure Air Temp Water Temp Dewpoint Dewpoint Depression Visibility Wind Speed Wind Dir Waves Ship Positions

Tip Oslo

Last reported at 2017-Nov-23 22:01 UTC. Time now 2017-Nov-24 16:53 UTC.
Position N 43°52' W 007°43'.

Length 120 m; draft 6.7 m.

Type: Cargo ship. MMSI: 256537000.

Date/timePositionNaut miles runAvg speedWind from/ knotsBaromVisibWave heightAir tempDewpointWater temp
2017-Nov-23 22:01N 43°52' W 007°43'111.1
2017-Nov-23 21:57N 43°52' W 007°42'610.9
2017-Nov-23 21:24N 43°48' W 007°36'411.4
2017-Nov-23 21:00N 43°44' W 007°36'3 5.6
2017-Nov-23 20:30N 43°41' W 007°36'0 0.0
2017-Nov-23 20:00N 43°41' W 007°36'0 0.0
2017-Nov-23 19:30N 43°41' W 007°36'0 0.0
2017-Nov-23 19:00N 43°41' W 007°36'0 0.0
2017-Nov-23 18:30N 43°41' W 007°36'0 0.0
2017-Nov-23 18:01N 43°41' W 007°36'0 0.0
2017-Nov-23 17:30N 43°41' W 007°36'0 0.0
2017-Nov-23 17:00N 43°41' W 007°36'0 0.0
2017-Nov-23 16:30N 43°41' W 007°36'0 0.0
2017-Nov-23 16:00N 43°41' W 007°36'0 0.0
2017-Nov-23 15:30N 43°41' W 007°36'0 0.0
2017-Nov-23 15:00N 43°41' W 007°36'0 0.0
2017-Nov-23 14:30N 43°41' W 007°36'0 0.0
2017-Nov-23 14:00N 43°41' W 007°36'0 0.0
2017-Nov-23 13:30N 43°41' W 007°36'0 0.0
2017-Nov-23 13:00N 43°41' W 007°36'0 0.0
2017-Nov-23 12:30N 43°41' W 007°36'0 0.0
2017-Nov-23 12:00N 43°41' W 007°36'0 0.0
2017-Nov-23 11:30N 43°41' W 007°36'0 0.0
2017-Nov-23 11:00N 43°41' W 007°36'0 0.0
2017-Nov-23 10:30N 43°41' W 007°36'0 0.0
2017-Nov-23 10:01N 43°41' W 007°36'0 0.0
2017-Nov-23 09:30N 43°41' W 007°36'0 0.0
2017-Nov-23 09:00N 43°41' W 007°36'0 0.0
2017-Nov-23 08:30N 43°41' W 007°36'0 0.0
2017-Nov-23 08:00N 43°41' W 007°36'0 0.0
2017-Nov-23 07:30N 43°41' W 007°36'0 0.0
2017-Nov-23 07:00N 43°41' W 007°36'0 0.0
2017-Nov-23 06:30N 43°41' W 007°36'0 0.0
2017-Nov-23 06:00N 43°41' W 007°36'1 1.1
2017-Nov-23 05:27N 43°41' W 007°36'0 0.1
2017-Nov-23 04:57N 43°41' W 007°36'0 0.1
2017-Nov-23 04:30N 43°42' W 007°36'0 0.1
2017-Nov-23 04:00N 43°41' W 007°36'0 0.0
2017-Nov-23 03:30N 43°41' W 007°36'0 0.1
2017-Nov-23 02:57N 43°42' W 007°36'0 0.1
2017-Nov-23 02:30N 43°41' W 007°36'0 0.0
2017-Nov-23 01:57N 43°42' W 007°36'0 0.0
2017-Nov-23 01:30N 43°42' W 007°36'0 0.0
2017-Nov-23 01:00N 43°42' W 007°36'0 0.0
2017-Nov-23 00:30N 43°42' W 007°36'0 0.1
2017-Nov-23 00:00N 43°42' W 007°36'0 0.0
2017-Nov-22 23:30N 43°42' W 007°36'0 0.0
2017-Nov-22 23:00N 43°42' W 007°36'0 0.0
2017-Nov-22 22:30N 43°42' W 007°36'0 0.0
2017-Nov-22 22:00N 43°42' W 007°36'0 0.0
2017-Nov-22 21:27N 43°42' W 007°36'0 0.1
2017-Nov-22 20:54N 43°42' W 007°36'0 0.1
2017-Nov-22 20:30N 43°42' W 007°36'0 0.0
2017-Nov-22 19:57N 43°42' W 007°36'0 0.0
2017-Nov-22 19:30N 43°42' W 007°36'  
2017-Nov-19 11:31N 35°56' W 005°20'112.7
2017-Nov-19 11:26N 35°56' W 005°19'2 4.3
2017-Nov-19 10:58N 35°54' W 005°19'0 0.0
2017-Nov-19 10:28N 35°54' W 005°19'0 0.0
2017-Nov-19 09:58N 35°54' W 005°19'0 0.0
2017-Nov-19 09:28N 35°54' W 005°19'0 0.0
2017-Nov-19 08:58N 35°54' W 005°19'0 0.0
2017-Nov-19 08:28N 35°54' W 005°19'0 0.0
2017-Nov-19 07:58N 35°54' W 005°19'1 1.1
2017-Nov-19 07:30N 35°54' W 005°19'1 2.7
2017-Nov-19 07:00N 35°55' W 005°18'23310.8
2017-Nov-18 09:19N 37°24' W 000°49'411.8
2017-Nov-18 08:59N 37°27' W 000°45'1111.7
2017-Nov-18 08:04N 37°34' W 000°35'113.9
2017-Nov-18 08:00N 37°35' W 000°34'714.4
2017-Nov-18 07:30N 37°40' W 000°29'  
2017-Nov-15 17:54N 43°23' E 004°58'3 6.1
2017-Nov-15 17:29N 43°24' E 005°01'0 0.0
2017-Nov-15 16:59N 43°24' E 005°01'0 0.0
2017-Nov-15 16:29N 43°24' E 005°01'0 0.0
2017-Nov-15 15:59N 43°24' E 005°01'0 0.0
2017-Nov-15 15:29N 43°24' E 005°01'0 0.0
2017-Nov-15 14:59N 43°24' E 005°01'0 0.0
2017-Nov-15 14:29N 43°24' E 005°01'0 0.0
2017-Nov-15 13:56N 43°24' E 005°01'0 0.0
2017-Nov-15 13:29N 43°24' E 005°01'0 0.0
2017-Nov-15 12:59N 43°24' E 005°01'0 0.0
2017-Nov-15 12:29N 43°24' E 005°01'0 0.0
2017-Nov-15 11:59N 43°24' E 005°01'0 0.0
2017-Nov-15 11:29N 43°24' E 005°01'0 0.0
2017-Nov-15 10:59N 43°24' E 005°01'0 0.0
2017-Nov-15 10:29N 43°24' E 005°01'0 0.0
2017-Nov-15 09:59N 43°24' E 005°01'0 0.0
2017-Nov-15 09:29N 43°24' E 005°01'0 0.0
2017-Nov-15 08:56N 43°24' E 005°01'0 0.0
2017-Nov-15 08:29N 43°24' E 005°01'0 0.0
2017-Nov-15 07:59N 43°24' E 005°01'0 0.0
2017-Nov-15 07:29N 43°24' E 005°01'0 0.0
2017-Nov-15 06:59N 43°24' E 005°01'0 0.0
2017-Nov-15 06:29N 43°24' E 005°01'0 0.0
2017-Nov-15 05:59N 43°24' E 005°01'0 0.0
2017-Nov-15 05:29N 43°24' E 005°01'0 0.0
2017-Nov-15 04:59N 43°24' E 005°01'0 0.0
2017-Nov-15 04:29N 43°24' E 005°01'0 0.0
2017-Nov-15 03:59N 43°24' E 005°01'0 0.0
2017-Nov-15 03:29N 43°24' E 005°01'0 0.0
2017-Nov-15 02:59N 43°24' E 005°01'0 0.0
2017-Nov-15 02:29N 43°24' E 005°01'0 0.0
2017-Nov-15 01:58N 43°24' E 005°01'0 0.0
2017-Nov-15 01:28N 43°24' E 005°01'0 0.0
2017-Nov-15 00:58N 43°24' E 005°01'0 0.0
2017-Nov-15 00:28N 43°24' E 005°01'0 0.0
2017-Nov-14 23:58N 43°24' E 005°01'0 0.0
2017-Nov-14 23:28N 43°24' E 005°01'0 0.0
2017-Nov-14 22:58N 43°24' E 005°01'0 0.0
2017-Nov-14 22:28N 43°24' E 005°01'0 0.0
2017-Nov-14 21:58N 43°24' E 005°01'0 0.0
2017-Nov-14 21:28N 43°24' E 005°01'0 0.0
2017-Nov-14 20:58N 43°24' E 005°01'0 0.0
2017-Nov-14 20:28N 43°24' E 005°01'0 0.0
2017-Nov-14 19:58N 43°24' E 005°01'0 0.0
2017-Nov-14 19:28N 43°24' E 005°01'0 0.0
2017-Nov-14 18:58N 43°24' E 005°01'0 0.0
2017-Nov-14 18:28N 43°24' E 005°01'0 0.0
2017-Nov-14 17:58N 43°24' E 005°01'0 0.0
2017-Nov-14 17:28N 43°24' E 005°01'0 0.0
2017-Nov-14 16:58N 43°24' E 005°01'0 0.0
2017-Nov-14 16:25N 43°24' E 005°01'0 0.0
2017-Nov-14 15:55N 43°24' E 005°01'0 0.0
2017-Nov-14 15:28N 43°24' E 005°01'0 0.0
2017-Nov-14 14:55N 43°24' E 005°01'0 0.0
2017-Nov-14 14:28N 43°24' E 005°01'0 0.0
2017-Nov-14 13:58N 43°24' E 005°01'0 0.0
2017-Nov-14 13:28N 43°24' E 005°01'0 0.0
2017-Nov-14 12:58N 43°24' E 005°01'0 0.0
2017-Nov-14 12:28N 43°24' E 005°01'0 0.0
2017-Nov-14 11:58N 43°24' E 005°01'0 0.0
2017-Nov-14 11:22N 43°24' E 005°01'0 0.0
2017-Nov-14 10:58N 43°24' E 005°01'0 0.0
2017-Nov-14 10:28N 43°24' E 005°01'0 0.0
2017-Nov-14 09:55N 43°24' E 005°01'0 0.0
2017-Nov-14 09:28N 43°24' E 005°01'0 0.0
2017-Nov-14 08:55N 43°24' E 005°01'0 0.0
2017-Nov-14 08:28N 43°24' E 005°01'0 0.0
2017-Nov-14 07:58N 43°24' E 005°01'0 0.0
2017-Nov-14 07:28N 43°24' E 005°01'0 0.0
2017-Nov-14 06:58N 43°24' E 005°01'0 0.0
2017-Nov-14 06:28N 43°24' E 005°01'0 0.0
2017-Nov-14 05:58N 43°24' E 005°01'0 0.0
2017-Nov-14 05:28N 43°24' E 005°01'0 0.0
2017-Nov-14 04:58N 43°24' E 005°01'0 0.0
2017-Nov-14 04:28N 43°24' E 005°01'0 0.0
2017-Nov-14 03:58N 43°24' E 005°01'0 0.0
2017-Nov-14 03:28N 43°24' E 005°01'0 0.0
2017-Nov-14 02:58N 43°24' E 005°01'0 0.0
2017-Nov-14 02:28N 43°24' E 005°01'0 0.0
2017-Nov-14 01:58N 43°24' E 005°01'0 0.0
2017-Nov-14 01:28N 43°24' E 005°01'0 0.0
2017-Nov-14 00:58N 43°24' E 005°01'0 0.0
2017-Nov-14 00:28N 43°24' E 005°01'0 0.0
2017-Nov-13 23:58N 43°24' E 005°01'0 0.0
2017-Nov-13 23:28N 43°24' E 005°01'0 0.0
2017-Nov-13 22:55N 43°24' E 005°01'0 0.0
2017-Nov-13 22:28N 43°24' E 005°01'  

Dump ship's entire track history